sensor_id;sensor_type;location;lat;lon;timestamp;pressure;altitude;pressure_sealevel;temperature;humidity
78509;BME280;67802;50.846;7.958;2023-04-03T00:00:44;98877.16;;;19.12;30.64
78509;BME280;67802;50.846;7.958;2023-04-03T00:03:10;98885.06;;;19.12;30.47
78509;BME280;67802;50.846;7.958;2023-04-03T00:05:35;98886.00;;;19.11;30.58
78509;BME280;67802;50.846;7.958;2023-04-03T00:08:01;98872.06;;;19.09;30.47
78509;BME280;67802;50.846;7.958;2023-04-03T00:10:27;98875.66;;;19.08;30.75
78509;BME280;67802;50.846;7.958;2023-04-03T00:12:53;98881.03;;;19.07;30.67
78509;BME280;67802;50.846;7.958;2023-04-03T00:15:18;98881.13;;;19.05;30.65
78509;BME280;67802;50.846;7.958;2023-04-03T00:17:43;98879.44;;;19.04;30.81
78509;BME280;67802;50.846;7.958;2023-04-03T00:20:09;98876.06;;;19.02;30.67
78509;BME280;67802;50.846;7.958;2023-04-03T00:22:34;98878.69;;;19.02;30.82
78509;BME280;67802;50.846;7.958;2023-04-03T00:25:00;98887.53;;;19.01;30.79
78509;BME280;67802;50.846;7.958;2023-04-03T00:27:25;98888.47;;;19.00;30.98
78509;BME280;67802;50.846;7.958;2023-04-03T00:29:51;98890.34;;;18.98;31.11
78509;BME280;67802;50.846;7.958;2023-04-03T00:32:16;98885.09;;;18.98;30.88
78509;BME280;67802;50.846;7.958;2023-04-03T00:34:41;98885.16;;;18.96;30.78
78509;BME280;67802;50.846;7.958;2023-04-03T00:37:06;98886.97;;;18.96;30.85
78509;BME280;67802;50.846;7.958;2023-04-03T00:39:32;98886.97;;;18.96;31.05
78509;BME280;67802;50.846;7.958;2023-04-03T00:41:57;98885.22;;;18.95;30.86
78509;BME280;67802;50.846;7.958;2023-04-03T00:47:01;98874.69;;;18.95;30.83
78509;BME280;67802;50.846;7.958;2023-04-03T00:49:29;98879.97;;;18.95;30.92
78509;BME280;67802;50.846;7.958;2023-04-03T00:51:55;98877.34;;;18.95;30.70
78509;BME280;67802;50.846;7.958;2023-04-03T00:54:22;98884.31;;;18.96;30.90
78509;BME280;67802;50.846;7.958;2023-04-03T00:56:48;98886.97;;;18.96;30.80
78509;BME280;67802;50.846;7.958;2023-04-03T00:59:21;98880.75;;;18.97;30.79
78509;BME280;67802;50.846;7.958;2023-04-03T01:01:50;98886.97;;;18.96;30.78
78509;BME280;67802;50.846;7.958;2023-04-03T01:07:09;98878.13;;;18.97;30.64
78509;BME280;67802;50.846;7.958;2023-04-03T01:09:36;98878.94;;;18.97;30.83
78509;BME280;67802;50.846;7.958;2023-04-03T01:12:19;98877.19;;;18.98;30.69
78509;BME280;67802;50.846;7.958;2023-04-03T01:14:46;98874.53;;;18.98;30.93
78509;BME280;67802;50.846;7.958;2023-04-03T01:17:39;98883.19;;;19.00;30.90
78509;BME280;67802;50.846;7.958;2023-04-03T01:20:36;98882.34;;;19.00;30.80
78509;BME280;67802;50.846;7.958;2023-04-03T01:25:56;98880.47;;;19.02;30.83
78509;BME280;67802;50.846;7.958;2023-04-03T01:28:27;98868.16;;;19.02;30.76
78509;BME280;67802;50.846;7.958;2023-04-03T01:31:20;98869.75;;;19.05;30.93
78509;BME280;67802;50.846;7.958;2023-04-03T01:33:48;98870.59;;;19.05;30.69
78509;BME280;67802;50.846;7.958;2023-04-03T01:36:20;98876.63;;;19.07;30.93
78509;BME280;67802;50.846;7.958;2023-04-03T01:38:46;98875.66;;;19.08;30.74
78509;BME280;67802;50.846;7.958;2023-04-03T01:41:11;98874.72;;;19.09;30.73
78509;BME280;67802;50.846;7.958;2023-04-03T01:43:36;98880.72;;;19.11;30.82
78509;BME280;67802;50.846;7.958;2023-04-03T01:46:02;98875.38;;;19.13;30.78
78509;BME280;67802;50.846;7.958;2023-04-03T01:48:27;98872.63;;;19.15;30.77
78509;BME280;67802;50.846;7.958;2023-04-03T01:50:53;98882.16;;;19.17;30.62
78509;BME280;67802;50.846;7.958;2023-04-03T01:53:19;98882.03;;;19.19;30.59
78509;BME280;67802;50.846;7.958;2023-04-03T01:55:44;98888.06;;;19.21;30.52
78509;BME280;67802;50.846;7.958;2023-04-03T01:58:10;98884.50;;;19.22;30.62
78509;BME280;67802;50.846;7.958;2023-04-03T02:00:35;98888.81;;;19.23;30.50
78509;BME280;67802;50.846;7.958;2023-04-03T02:03:01;98892.19;;;19.25;30.36
78509;BME280;67802;50.846;7.958;2023-04-03T02:05:27;98887.69;;;19.27;30.64
78509;BME280;67802;50.846;7.958;2023-04-03T02:07:52;98882.41;;;19.27;30.63
78509;BME280;67802;50.846;7.958;2023-04-03T02:10:17;98889.38;;;19.28;30.55
78509;BME280;67802;50.846;7.958;2023-04-03T02:12:43;98876.22;;;19.28;30.41
78509;BME280;67802;50.846;7.958;2023-04-03T02:15:08;98884.88;;;19.30;30.30
78509;BME280;67802;50.846;7.958;2023-04-03T02:17:35;98876.97;;;19.30;30.29
78509;BME280;67802;50.846;7.958;2023-04-03T02:20:00;98875.28;;;19.29;30.15
78509;BME280;67802;50.846;7.958;2023-04-03T02:22:25;98878.75;;;19.30;30.05
78509;BME280;67802;50.846;7.958;2023-04-03T02:24:51;98884.88;;;19.30;29.93
78509;BME280;67802;50.846;7.958;2023-04-03T02:27:17;98884.88;;;19.30;30.00
78509;BME280;67802;50.846;7.958;2023-04-03T02:29:42;98885.72;;;19.31;29.81
78509;BME280;67802;50.846;7.958;2023-04-03T02:32:07;98878.75;;;19.30;30.03
78509;BME280;67802;50.846;7.958;2023-04-03T02:34:33;98888.44;;;19.29;29.63
78509;BME280;67802;50.846;7.958;2023-04-03T02:36:58;98887.50;;;19.30;29.71
78509;BME280;67802;50.846;7.958;2023-04-03T02:39:23;98884.13;;;19.28;29.56
78509;BME280;67802;50.846;7.958;2023-04-03T02:41:49;98892.00;;;19.28;29.56
78509;BME280;67802;50.846;7.958;2023-04-03T02:44:14;98890.31;;;19.27;29.36
78509;BME280;67802;50.846;7.958;2023-04-03T02:46:39;98893.91;;;19.26;29.29
78509;BME280;67802;50.846;7.958;2023-04-03T02:49:05;98893.06;;;19.25;29.37
78509;BME280;67802;50.846;7.958;2023-04-03T02:51:30;98891.38;;;19.24;29.11
78509;BME280;67802;50.846;7.958;2023-04-03T02:53:56;98901.06;;;19.24;28.86
78509;BME280;67802;50.846;7.958;2023-04-03T02:56:21;98893.34;;;19.21;28.93
78509;BME280;67802;50.846;7.958;2023-04-03T02:58:47;98895.97;;;19.21;28.85
78509;BME280;67802;50.846;7.958;2023-04-03T03:01:13;98890.88;;;19.18;28.76
78509;BME280;67802;50.846;7.958;2023-04-03T03:03:38;98891.94;;;19.15;28.52
78509;BME280;67802;50.846;7.958;2023-04-03T03:06:12;98895.59;;;19.12;28.48
78509;BME280;67802;50.846;7.958;2023-04-03T03:08:38;98893.16;;;19.09;28.61
78509;BME280;67802;50.846;7.958;2023-04-03T03:11:04;98901.97;;;19.08;28.75
78509;BME280;67802;50.846;7.958;2023-04-03T03:13:30;98903.03;;;19.06;28.83
78509;BME280;67802;50.846;7.958;2023-04-03T03:15:56;98900.50;;;19.04;28.76
78509;BME280;67802;50.846;7.958;2023-04-03T03:18:21;98900.69;;;19.01;28.67
78509;BME280;67802;50.846;7.958;2023-04-03T03:20:51;98904.25;;;19.00;28.78
78509;BME280;67802;50.846;7.958;2023-04-03T03:23:16;98907.09;;;18.97;28.83
78509;BME280;67802;50.846;7.958;2023-04-03T03:25:41;98906.28;;;18.95;28.86
78509;BME280;67802;50.846;7.958;2023-04-03T03:28:07;98903.84;;;18.92;28.92
78509;BME280;67802;50.846;7.958;2023-04-03T03:30:33;98903.09;;;18.90;28.54
78509;BME280;67802;50.846;7.958;2023-04-03T03:32:58;98907.59;;;18.88;28.76
78509;BME280;67802;50.846;7.958;2023-04-03T03:35:23;98906.84;;;18.86;28.58
78509;BME280;67802;50.846;7.958;2023-04-03T03:37:49;98908.72;;;18.83;28.60
78509;BME280;67802;50.846;7.958;2023-04-03T03:40:14;98914.16;;;18.80;29.02
78509;BME280;67802;50.846;7.958;2023-04-03T03:42:40;98904.69;;;18.78;28.62
78509;BME280;67802;50.846;7.958;2023-04-03T03:45:06;98907.41;;;18.76;28.56
78509;BME280;67802;50.846;7.958;2023-04-03T03:47:31;98906.63;;;18.74;28.58
78509;BME280;67802;50.846;7.958;2023-04-03T03:49:56;98907.69;;;18.72;28.67
78509;BME280;67802;50.846;7.958;2023-04-03T03:52:22;98914.72;;;18.71;28.92
78509;BME280;67802;50.846;7.958;2023-04-03T03:54:47;98916.59;;;18.69;28.69
78509;BME280;67802;50.846;7.958;2023-04-03T03:57:12;98913.19;;;18.67;29.06
78509;BME280;67802;50.846;7.958;2023-04-03T03:59:38;98914.13;;;18.66;28.85
78509;BME280;67802;50.846;7.958;2023-04-03T04:02:05;98917.72;;;18.65;29.18
78509;BME280;67802;50.846;7.958;2023-04-03T04:04:30;98916.94;;;18.63;29.18
78509;BME280;67802;50.846;7.958;2023-04-03T04:06:55;98912.63;;;18.62;29.16
78509;BME280;67802;50.846;7.958;2023-04-03T04:09:21;98917.13;;;18.60;29.36
78509;BME280;67802;50.846;7.958;2023-04-03T04:11:46;98915.34;;;18.60;29.43
78509;BME280;67802;50.846;7.958;2023-04-03T04:14:12;98917.13;;;18.60;29.11
78509;BME280;67802;50.846;7.958;2023-04-03T04:16:38;98917.13;;;18.60;28.76
78509;BME280;67802;50.846;7.958;2023-04-03T04:19:03;98925.03;;;18.60;28.85
78509;BME280;67802;50.846;7.958;2023-04-03T04:21:29;98918.00;;;18.60;28.73
78509;BME280;67802;50.846;7.958;2023-04-03T04:23:54;98922.38;;;18.60;29.09
78509;BME280;67802;50.846;7.958;2023-04-03T04:26:20;98920.69;;;18.59;29.29
78509;BME280;67802;50.846;7.958;2023-04-03T04:28:46;98932.09;;;18.59;29.09
78509;BME280;67802;50.846;7.958;2023-04-03T04:31:11;98927.66;;;18.60;28.84
78509;BME280;67802;50.846;7.958;2023-04-03T04:33:36;98922.38;;;18.60;28.64
78509;BME280;67802;50.846;7.958;2023-04-03T04:36:02;98921.56;;;18.59;28.56
78509;BME280;67802;50.846;7.958;2023-04-03T04:38:27;98922.38;;;18.60;28.68
78509;BME280;67802;50.846;7.958;2023-04-03T04:40:53;98919.88;;;18.58;29.02
78509;BME280;67802;50.846;7.958;2023-04-03T04:43:18;98921.56;;;18.59;28.74
78509;BME280;67802;50.846;7.958;2023-04-03T04:45:43;98920.69;;;18.59;28.50
78509;BME280;67802;50.846;7.958;2023-04-03T04:48:09;98919.88;;;18.58;28.72
78509;BME280;67802;50.846;7.958;2023-04-03T04:50:34;98925.97;;;18.59;28.84
78509;BME280;67802;50.846;7.958;2023-04-03T04:53:00;98919.88;;;18.58;28.89
78509;BME280;67802;50.846;7.958;2023-04-03T04:55:25;98922.56;;;18.57;29.09
78509;BME280;67802;50.846;7.958;2023-04-03T04:57:51;98929.53;;;18.58;29.10
78509;BME280;67802;50.846;7.958;2023-04-03T05:00:17;98932.16;;;18.58;29.13
78509;BME280;67802;50.846;7.958;2023-04-03T05:02:43;98932.16;;;18.58;28.97
78509;BME280;67802;50.846;7.958;2023-04-03T05:05:08;98936.47;;;18.59;28.88
78509;BME280;67802;50.846;7.958;2023-04-03T05:07:34;98941.75;;;18.59;29.18
78509;BME280;67802;50.846;7.958;2023-04-03T05:10:01;98939.03;;;18.60;29.02
78509;BME280;67802;50.846;7.958;2023-04-03T05:12:26;98939.88;;;18.61;29.27
78509;BME280;67802;50.846;7.958;2023-04-03T05:14:51;98941.56;;;18.62;28.99
78509;BME280;67802;50.846;7.958;2023-04-03T05:17:17;98938.88;;;18.63;28.99
78509;BME280;67802;50.846;7.958;2023-04-03T05:19:42;98949.28;;;18.65;28.96
78509;BME280;67802;50.846;7.958;2023-04-03T05:22:07;98952.69;;;18.67;28.95
78509;BME280;67802;50.846;7.958;2023-04-03T05:24:32;98948.16;;;18.69;28.61
78509;BME280;67802;50.846;7.958;2023-04-03T05:26:58;98949.88;;;18.70;28.38
78509;BME280;67802;50.846;7.958;2023-04-03T05:29:23;98948.00;;;18.72;28.28
78509;BME280;67802;50.846;7.958;2023-04-03T05:31:49;98954.94;;;18.73;28.62
78509;BME280;67802;50.846;7.958;2023-04-03T05:34:15;98955.81;;;18.74;28.58
78509;BME280;67802;50.846;7.958;2023-04-03T05:36:41;98951.38;;;18.74;28.20
78509;BME280;67802;50.846;7.958;2023-04-03T05:39:06;98962.78;;;18.75;28.18
78509;BME280;67802;50.846;7.958;2023-04-03T05:41:32;98960.03;;;18.76;28.02
78509;BME280;67802;50.846;7.958;2023-04-03T05:43:57;98961.72;;;18.77;27.95
78509;BME280;67802;50.846;7.958;2023-04-03T05:46:22;98967.84;;;18.78;28.13
78509;BME280;67802;50.846;7.958;2023-04-03T05:48:48;98971.31;;;18.78;28.25
78509;BME280;67802;50.846;7.958;2023-04-03T05:51:16;98978.38;;;18.78;27.88
78509;BME280;67802;50.846;7.958;2023-04-03T05:53:43;98973.97;;;18.78;28.06
78509;BME280;67802;50.846;7.958;2023-04-03T05:56:09;98987.13;;;18.78;28.31
78509;BME280;67802;50.846;7.958;2023-04-03T05:58:34;98980.09;;;18.79;28.47
78509;BME280;67802;50.846;7.958;2023-04-03T06:00:59;98982.63;;;18.80;28.44
78509;BME280;67802;50.846;7.958;2023-04-03T06:03:25;98984.31;;;18.81;28.08
78509;BME280;67802;50.846;7.958;2023-04-03T06:05:51;98982.44;;;18.83;27.96
78509;BME280;67802;50.846;7.958;2023-04-03T06:08:16;98986.75;;;18.84;28.53
78509;BME280;67802;50.846;7.958;2023-04-03T06:10:42;98987.53;;;18.87;27.94
78509;BME280;67802;50.846;7.958;2023-04-03T06:13:07;98995.25;;;18.90;27.44
78509;BME280;67802;50.846;7.958;2023-04-03T06:15:33;98987.34;;;18.90;27.66
78509;BME280;67802;50.846;7.958;2023-04-03T06:17:59;98995.13;;;18.91;27.32
78509;BME280;67802;50.846;7.958;2023-04-03T06:20:24;98989.03;;;18.91;27.48
78509;BME280;67802;50.846;7.958;2023-04-03T06:22:50;98992.59;;;18.90;27.66
78509;BME280;67802;50.846;7.958;2023-04-03T06:25:16;98997.00;;;18.89;27.66
78509;BME280;67802;50.846;7.958;2023-04-03T06:27:44;98993.63;;;18.87;27.79
78509;BME280;67802;50.846;7.958;2023-04-03T06:30:09;99003.13;;;18.90;27.26
78509;BME280;67802;50.846;7.958;2023-04-03T06:32:36;99010.09;;;18.91;27.11
78509;BME280;67802;50.846;7.958;2023-04-03T06:35:01;99016.31;;;18.90;27.15
78509;BME280;67802;50.846;7.958;2023-04-03T06:37:27;99017.31;;;18.87;27.28
78509;BME280;67802;50.846;7.958;2023-04-03T06:39:54;99019.13;;;18.87;27.02
78509;BME280;67802;50.846;7.958;2023-04-03T06:42:20;99016.66;;;18.83;26.97
78509;BME280;67802;50.846;7.958;2023-04-03T06:44:46;99019.38;;;18.82;26.98
78509;BME280;67802;50.846;7.958;2023-04-03T06:47:13;99016.00;;;18.80;27.31
78509;BME280;67802;50.846;7.958;2023-04-03T06:49:38;99021.34;;;18.78;27.28
78509;BME280;67802;50.846;7.958;2023-04-03T06:52:04;99019.66;;;18.77;27.25
78509;BME280;67802;50.846;7.958;2023-04-03T06:54:31;99025.84;;;18.76;27.25
78509;BME280;67802;50.846;7.958;2023-04-03T06:56:56;99030.34;;;18.74;27.12
78509;BME280;67802;50.846;7.958;2023-04-03T06:59:21;99035.63;;;18.74;26.97
78509;BME280;67802;50.846;7.958;2023-04-03T07:01:47;99042.75;;;18.72;26.88
78509;BME280;67802;50.846;7.958;2023-04-03T07:04:12;99034.09;;;18.70;26.81
78509;BME280;67802;50.846;7.958;2023-04-03T07:06:37;99039.53;;;18.67;27.04
78509;BME280;67802;50.846;7.958;2023-04-03T07:09:03;99048.34;;;18.66;26.96
78509;BME280;67802;50.846;7.958;2023-04-03T07:11:28;99054.66;;;18.63;26.79
78509;BME280;67802;50.846;7.958;2023-04-03T07:13:54;99042.50;;;18.61;27.06
78509;BME280;67802;50.846;7.958;2023-04-03T07:16:20;99052.28;;;18.59;26.93
78509;BME280;67802;50.846;7.958;2023-04-03T07:18:46;99059.41;;;18.57;26.77
78509;BME280;67802;50.846;7.958;2023-04-03T07:21:12;99062.25;;;18.53;26.94
78509;BME280;67802;50.846;7.958;2023-04-03T07:23:38;99065.88;;;18.51;26.80
78509;BME280;67802;50.846;7.958;2023-04-03T07:26:04;99058.91;;;18.50;26.97
78509;BME280;67802;50.846;7.958;2023-04-03T07:28:29;99062.47;;;18.49;26.66
78509;BME280;67802;50.846;7.958;2023-04-03T07:31:06;99064.28;;;18.48;26.76
78509;BME280;67802;50.846;7.958;2023-04-03T07:33:34;99069.53;;;18.48;26.89
78509;BME280;67802;50.846;7.958;2023-04-03T07:36:00;99060.78;;;18.48;26.84
78509;BME280;67802;50.846;7.958;2023-04-03T07:38:26;99075.81;;;18.46;26.68
78509;BME280;67802;50.846;7.958;2023-04-03T07:40:52;99081.06;;;18.46;26.71
78509;BME280;67802;50.846;7.958;2023-04-03T07:43:18;99073.19;;;18.46;26.63
78509;BME280;67802;50.846;7.958;2023-04-03T07:45:45;99072.34;;;18.45;26.71
78509;BME280;67802;50.846;7.958;2023-04-03T07:48:12;99076.75;;;18.45;26.98
78509;BME280;67802;50.846;7.958;2023-04-03T07:50:40;99081.16;;;18.44;27.07
78509;BME280;67802;50.846;7.958;2023-04-03T07:53:05;99080.13;;;18.47;27.10
78509;BME280;67802;50.846;7.958;2023-04-03T07:55:31;99081.84;;;18.48;27.04
78509;BME280;67802;50.846;7.958;2023-04-03T07:57:56;99080.06;;;18.48;26.75
78509;BME280;67802;50.846;7.958;2023-04-03T08:00:22;99080.06;;;18.48;26.78
78509;BME280;67802;50.846;7.958;2023-04-03T08:02:48;99084.56;;;18.46;26.51
78509;BME280;67802;50.846;7.958;2023-04-03T08:05:17;99081.16;;;18.44;26.70
78509;BME280;67802;50.846;7.958;2023-04-03T08:07:42;99082.88;;;18.45;26.52
78509;BME280;67802;50.846;7.958;2023-04-03T08:10:08;99079.47;;;18.43;26.43
78509;BME280;67802;50.846;7.958;2023-04-03T08:12:34;99083.03;;;18.42;26.55
78509;BME280;67802;50.846;7.958;2023-04-03T08:15:00;99077.78;;;18.42;26.54
78509;BME280;67802;50.846;7.958;2023-04-03T08:17:26;99075.13;;;18.42;26.51
78509;BME280;67802;50.846;7.958;2023-04-03T08:19:52;99082.09;;;18.43;26.42
78509;BME280;67802;50.846;7.958;2023-04-03T08:22:17;99078.59;;;18.43;26.42
78509;BME280;67802;50.846;7.958;2023-04-03T08:24:42;99077.78;;;18.42;26.41
78509;BME280;67802;50.846;7.958;2023-04-03T08:27:08;99075.13;;;18.42;26.11
78509;BME280;67802;50.846;7.958;2023-04-03T08:29:33;99069.13;;;18.40;26.20
78509;BME280;67802;50.846;7.958;2023-04-03T08:31:58;99077.25;;;18.35;25.92
78509;BME280;67802;50.846;7.958;2023-04-03T08:34:24;99078.28;;;18.33;25.65
78509;BME280;67802;50.846;7.958;2023-04-03T08:36:49;99080.13;;;18.31;25.82
78509;BME280;67802;50.846;7.958;2023-04-03T08:39:14;99071.31;;;18.32;25.77
78509;BME280;67802;50.846;7.958;2023-04-03T08:41:44;99075.66;;;18.33;25.62
78509;BME280;67802;50.846;7.958;2023-04-03T08:47:23;99075.66;;;18.33;25.66
78509;BME280;67802;50.846;7.958;2023-04-03T08:49:59;99068.53;;;18.35;25.96
78509;BME280;67802;50.846;7.958;2023-04-03T08:52:44;99071.81;;;18.38;25.77
78509;BME280;67802;50.846;7.958;2023-04-03T08:55:29;99077.06;;;18.38;25.89
78509;BME280;67802;50.846;7.958;2023-04-03T08:58:05;99079.13;;;18.49;26.14
78509;BME280;67802;50.846;7.958;2023-04-03T09:03:16;99083.50;;;18.65;26.52
78509;BME280;67802;50.846;7.958;2023-04-03T09:05:48;99091.00;;;18.73;26.45
78509;BME280;67802;50.846;7.958;2023-04-03T09:08:26;99081.72;;;18.81;26.19
78509;BME280;67802;50.846;7.958;2023-04-03T09:11:00;99080.31;;;18.90;26.00
78509;BME280;67802;50.846;7.958;2023-04-03T09:13:57;99088.78;;;18.97;26.01
78509;BME280;67802;50.846;7.958;2023-04-03T09:16:35;99083.31;;;19.00;26.16
78509;BME280;67802;50.846;7.958;2023-04-03T09:19:19;99089.19;;;19.05;26.26
78509;BME280;67802;50.846;7.958;2023-04-03T09:21:47;99097.56;;;19.12;26.33
78509;BME280;67802;50.846;7.958;2023-04-03T09:24:15;99091.06;;;19.18;26.60
78509;BME280;67802;50.846;7.958;2023-04-03T09:27:01;99090.53;;;19.27;25.96
78509;BME280;67802;50.846;7.958;2023-04-03T09:29:28;99077.94;;;19.32;26.06
78509;BME280;67802;50.846;7.958;2023-04-03T09:31:57;99082.09;;;19.36;26.05
78509;BME280;67802;50.846;7.958;2023-04-03T09:34:30;99077.47;;;19.40;26.03
78509;BME280;67802;50.846;7.958;2023-04-03T09:37:02;99078.22;;;19.42;25.96
78509;BME280;67802;50.846;7.958;2023-04-03T09:39:50;99071.94;;;19.45;26.41
78509;BME280;67802;50.846;7.958;2023-04-03T09:42:23;99075.59;;;19.42;26.10
78509;BME280;67802;50.846;7.958;2023-04-03T09:44:57;99075.69;;;19.40;26.15
78509;BME280;67802;50.846;7.958;2023-04-03T09:47:49;99082.84;;;19.38;25.81
78509;BME280;67802;50.846;7.958;2023-04-03T09:50:28;99081.16;;;19.37;26.10
78509;BME280;67802;50.846;7.958;2023-04-03T09:52:54;99081.16;;;19.37;26.12
78509;BME280;67802;50.846;7.958;2023-04-03T09:55:26;99082.09;;;19.36;26.46
78509;BME280;67802;50.846;7.958;2023-04-03T09:57:54;99077.00;;;19.33;26.40
78509;BME280;67802;50.846;7.958;2023-04-03T10:02:52;99085.25;;;19.27;26.66
78509;BME280;67802;50.846;7.958;2023-04-03T10:05:29;99082.91;;;19.22;27.06
78509;BME280;67802;50.846;7.958;2023-04-03T10:10:39;99078.84;;;19.17;27.04
78509;BME280;67802;50.846;7.958;2023-04-03T10:13:11;99083.53;;;19.11;26.87
78509;BME280;67802;50.846;7.958;2023-04-03T10:15:46;99071.50;;;19.07;26.22
78509;BME280;67802;50.846;7.958;2023-04-03T10:18:40;99074.50;;;19.01;26.28
78509;BME280;67802;50.846;7.958;2023-04-03T10:24:21;99066.16;;;18.93;26.31
78509;BME280;67802;50.846;7.958;2023-04-03T10:30:03;99059.09;;;18.93;26.38
78509;BME280;67802;50.846;7.958;2023-04-03T10:38:28;99046.06;;;18.76;27.70
78509;BME280;67802;50.846;7.958;2023-04-03T10:41:02;99045.47;;;18.71;27.20
78509;BME280;67802;50.846;7.958;2023-04-03T10:46:32;99034.25;;;18.67;26.80
78509;BME280;67802;50.846;7.958;2023-04-03T10:54:43;99041.50;;;18.63;26.46
78509;BME280;67802;50.846;7.958;2023-04-03T10:57:11;99032.84;;;18.61;26.21
78509;BME280;67802;50.846;7.958;2023-04-03T10:59:53;99038.34;;;18.57;26.09
78509;BME280;67802;50.846;7.958;2023-04-03T11:02:27;99036.88;;;18.52;25.87
78509;BME280;67802;50.846;7.958;2023-04-03T11:05:01;99027.44;;;18.48;25.68
78509;BME280;67802;50.846;7.958;2023-04-03T11:07:32;99028.53;;;18.44;25.80
78509;BME280;67802;50.846;7.958;2023-04-03T11:10:03;99037.53;;;18.40;25.53
78509;BME280;67802;50.846;7.958;2023-04-03T11:12:40;99029.66;;;18.40;25.62
78509;BME280;67802;50.846;7.958;2023-04-03T11:15:13;99022.59;;;18.41;25.66
78509;BME280;67802;50.846;7.958;2023-04-03T11:17:45;99022.59;;;18.41;25.61
78509;BME280;67802;50.846;7.958;2023-04-03T11:20:31;99013.88;;;18.40;25.61
78509;BME280;67802;50.846;7.958;2023-04-03T11:25:51;99015.47;;;18.43;25.79
78509;BME280;67802;50.846;7.958;2023-04-03T11:28:18;99020.66;;;18.44;26.08
78509;BME280;67802;50.846;7.958;2023-04-03T11:30:54;99015.41;;;18.44;25.52
78509;BME280;67802;50.846;7.958;2023-04-03T11:33:41;99016.31;;;18.43;25.48
78509;BME280;67802;50.846;7.958;2023-04-03T11:36:25;99019.91;;;18.42;25.19
78509;BME280;67802;50.846;7.958;2023-04-03T11:38:55;99014.69;;;18.41;24.76
78509;BME280;67802;50.846;7.958;2023-04-03T11:41:27;99012.25;;;18.37;24.67
78509;BME280;67802;50.846;7.958;2023-04-03T11:44:05;99011.41;;;18.37;24.59
78509;BME280;67802;50.846;7.958;2023-04-03T12:05:54;99000.38;;;18.46;24.27
78509;BME280;67802;50.846;7.958;2023-04-03T12:08:29;98990.69;;;18.47;24.33
78509;BME280;67802;50.846;7.958;2023-04-03T12:16:20;98991.09;;;18.55;25.22
78509;BME280;67802;50.846;7.958;2023-04-03T12:21:16;98981.97;;;18.61;25.04
78509;BME280;67802;50.846;7.958;2023-04-03T12:29:28;98971.03;;;18.68;24.08
78509;BME280;67802;50.846;7.958;2023-04-03T12:37:39;98962.09;;;18.71;25.04
78509;BME280;67802;50.846;7.958;2023-04-03T12:43:31;98958.16;;;18.78;25.07
78509;BME280;67802;50.846;7.958;2023-04-03T12:48:53;98960.44;;;18.84;25.00
78509;BME280;67802;50.846;7.958;2023-04-03T12:51:28;98955.94;;;18.87;24.74
78509;BME280;67802;50.846;7.958;2023-04-03T12:54:19;98962.88;;;18.88;24.62
78509;BME280;67802;50.846;7.958;2023-04-03T12:56:47;98959.31;;;18.89;24.16
78509;BME280;67802;50.846;7.958;2023-04-03T12:59:32;98940.88;;;18.89;24.19
78509;BME280;67802;50.846;7.958;2023-04-03T13:01:59;98938.25;;;18.89;24.10
78509;BME280;67802;50.846;7.958;2023-04-03T13:04:27;98941.81;;;18.88;24.10
78509;BME280;67802;50.846;7.958;2023-04-03T13:06:52;98948.78;;;18.89;24.08
78509;BME280;67802;50.846;7.958;2023-04-03T13:09:29;98940.13;;;18.87;24.10
78509;BME280;67802;50.846;7.958;2023-04-03T13:12:01;98934.00;;;18.86;23.58
78509;BME280;67802;50.846;7.958;2023-04-03T13:14:29;98937.56;;;18.85;24.14
78509;BME280;67802;50.846;7.958;2023-04-03T13:17:13;98931.47;;;18.84;24.69
78509;BME280;67802;50.846;7.958;2023-04-03T13:19:39;98929.78;;;18.83;24.80
78509;BME280;67802;50.846;7.958;2023-04-03T13:22:18;98927.44;;;18.79;24.99
78509;BME280;67802;50.846;7.958;2023-04-03T13:24:50;98928.44;;;18.76;24.93
78509;BME280;67802;50.846;7.958;2023-04-03T13:27:17;98916.41;;;18.72;24.48
78509;BME280;67802;50.846;7.958;2023-04-03T13:29:44;98929.00;;;18.67;24.81
78509;BME280;67802;50.846;7.958;2023-04-03T13:32:19;98925.78;;;18.62;24.35
78509;BME280;67802;50.846;7.958;2023-04-03T13:34:45;98926.13;;;18.56;24.47
78509;BME280;67802;50.846;7.958;2023-04-03T13:37:31;98919.38;;;18.51;24.75
78509;BME280;67802;50.846;7.958;2023-04-03T13:40:09;98924.66;;;18.51;24.75
78509;BME280;67802;50.846;7.958;2023-04-03T13:42:38;98913.38;;;18.49;24.95
78509;BME280;67802;50.846;7.958;2023-04-03T13:45:27;98911.66;;;18.48;24.70
78509;BME280;67802;50.846;7.958;2023-04-03T13:48:14;98917.00;;;18.47;24.71
78509;BME280;67802;50.846;7.958;2023-04-03T13:50:57;98916.94;;;18.48;24.89
78509;BME280;67802;50.846;7.958;2023-04-03T13:53:23;98908.09;;;18.49;24.97
78509;BME280;67802;50.846;7.958;2023-04-03T13:56:08;98903.78;;;18.48;25.03
78509;BME280;67802;50.846;7.958;2023-04-03T13:58:36;98900.47;;;18.45;24.88
78509;BME280;67802;50.846;7.958;2023-04-03T14:03:56;98895.31;;;18.43;24.92
78509;BME280;67802;50.846;7.958;2023-04-03T14:06:22;98900.56;;;18.43;24.73
78509;BME280;67802;50.846;7.958;2023-04-03T14:08:48;98897.19;;;18.41;24.56
78509;BME280;67802;50.846;7.958;2023-04-03T14:11:26;98889.38;;;18.39;24.73
78509;BME280;67802;50.846;7.958;2023-04-03T14:13:55;98886.84;;;18.38;25.45
78509;BME280;67802;50.846;7.958;2023-04-03T14:16:26;98891.22;;;18.37;25.59
78509;BME280;67802;50.846;7.958;2023-04-03T14:18:52;98885.97;;;18.37;25.24
78509;BME280;67802;50.846;7.958;2023-04-03T14:21:19;98874.63;;;18.37;24.85
78509;BME280;67802;50.846;7.958;2023-04-03T14:23:45;98872.00;;;18.37;25.02
78509;BME280;67802;50.846;7.958;2023-04-03T14:26:20;98875.56;;;18.36;24.76
78509;BME280;67802;50.846;7.958;2023-04-03T14:28:48;98876.56;;;18.33;24.54
78509;BME280;67802;50.846;7.958;2023-04-03T14:31:15;98883.81;;;18.30;24.32
78509;BME280;67802;50.846;7.958;2023-04-03T18:37:42;98917.53;;;17.09;24.04
78509;BME280;67802;50.846;7.958;2023-04-03T18:40:08;98927.00;;;17.12;23.97
78509;BME280;67802;50.846;7.958;2023-04-03T18:42:34;98925.00;;;17.17;23.98